EDXW 200120Z AUTO 30015KT 9999 // OVC017/// 13/11 Q1018 EDXW 200050Z AUTO 29014KT 9999 // OVC015/// 13/11 Q1018 EDXW 200020Z AUTO 29013KT 9999 // OVC008/// 13/11 Q1018 EDXW 192350Z AUTO 30015KT 9999 // OVC005/// 12/11 Q1017 EDXW 192320Z AUTO 28014KT 9999 // OVC005/// 12/12 Q1017 EDXW 192250Z AUTO 28013KT 5000 // BKN002/// OVC004/// 12/12 Q1017 EDXW 192220Z AUTO 27012KT 1300 R32/1800U // VV/// 13/12 Q1017 EDXW 192150Z AUTO 27011KT 1300 R32/1700U // SCT001/// OVC004/// 13/13 Q1017 EDXW 192120Z AUTO 26010KT 1100 R32/1900N // SCT001/// OVC004/// 13/13 Q1016 EDXW 192050Z AUTO 28011KT 3200 // SCT002/// BKN004/// OVC045/// 14/13 Q1016 EDXW 192020Z AUTO 27010KT 6000 // SCT002/// BKN060/// OVC095/// 14/13 Q1016 EDXW 191950Z AUTO 27012KT 9000 // FEW004/// BKN066/// BKN096/// 14/13 Q1016 EDXW 191920Z 27011KT CAVOK 14/13 Q1016 EDXW 191850Z 28010KT CAVOK 14/13 Q1015 EDXW 191820Z 29005KT CAVOK 15/13 Q1015 EDXW 191750Z 30005KT CAVOK 15/13 Q1015 EDXW 191720Z 32003KT CAVOK 15/13 Q1015 EDXW 191650Z VRB02KT 9999 FEW046 14/13 Q1015 EDXW 191620Z 27006KT 9999 -RA NSC 15/13 Q1016 EDXW 191550Z 27010KT CAVOK 15/13 Q1017 EDXW 191520Z 22010KT 190V260 CAVOK 18/15 Q1017 EDXW 191450Z 18006KT 9999 FEW037 19/16 Q1016 EDXW 191420Z 16007KT CAVOK 19/15 Q1016 EDXW 191350Z 13008KT CAVOK 19/15 Q1016 EDXW 191320Z 08009KT CAVOK 18/15 Q1015 EDXW 191250Z 10013KT CAVOK 18/14 Q1016 EDXW 191220Z 08011KT CAVOK 18/14 Q1016 EDXW 191150Z 08011KT CAVOK 17/13 Q1016 EDXW 191120Z 05010KT CAVOK 16/12 Q1017 EDXW 191050Z 04006KT 360V060 9999 FEW034 15/12 Q1017 EDXW 191020Z 03010KT 5000 -RA FEW025 14/13 Q1017 EDXW 190950Z 31007KT 3000 -RA BR FEW002 SCT049 13/13 Q1019 EDXW 190920Z 34005KT 4500 -RA BR FEW029 14/14 Q1018 EDXW 190850Z 29008KT 4500 -RA BR FEW035 13/13 Q1018 RERA EDXW 190820Z 30007KT 2000 -RA BR FEW007 13/12 Q1019 RETSRA EDXW 190750Z 31010KT 2500 RA BR FEW012 15/14 Q1018 EDXW 190720Z AUTO 10005KT 060V140 5000 // FEW095/// BKN110/// BKN210/// 16/14 Q1017 EDXW 190650Z AUTO 13006KT 010V170 5000 // BKN140/// BKN200/// BKN250/// 16/14 Q1017 EDXW 190620Z AUTO 08004KT 360V140 3400 // FEW005/// BKN230/// 15/15 Q1017 EDXW 190550Z AUTO 14006KT 3200 // FEW004/// BKN210/// 15/14 Q1017 EDXW 190520Z AUTO 14006KT 2500 // FEW004/// 15/14 Q1017 EDXW 190450Z AUTO 11005KT 2800 // FEW240/// 14/13 Q1017 EDXW 190420Z AUTO 09004KT 1000 R32/P2000N // FEW005/// 11/10 Q1017 EDXW 190350Z AUTO 09003KT 0300 R32/0275N // BKN004/// 10/10 Q1018 EDXW 190320Z AUTO VRB01KT 0200 R32/0225N // VV/// 10/10 Q1018 EDXW 190250Z AUTO 34001KT 0200 R32/0225N // VV/// 11/10 Q1018 EDXW 190220Z AUTO VRB01KT 0250 R32/0275N // VV/// 11/11 Q1018 EDXW 190150Z AUTO 30004KT 0350 R32/0400D // VV/// 12/11 Q1018 EDXW 190120Z AUTO 29005KT 2600 // FEW004/// 12/12 Q1018 EDXW 190050Z AUTO 28006KT 3200 // NCD 12/12 Q1018 EDXW 190020Z AUTO 28003KT 2400 // FEW060/// 12/11 Q1018 EDXW 182350Z AUTO 30003KT 3400 // NCD 12/12 Q1018 EDXW 182320Z AUTO 29006KT 3400 // NCD 13/12 Q1018 EDXW 182250Z AUTO 29008KT 4100 // FEW057/// 13/12 Q1019 EDXW 182220Z AUTO 30005KT 4300 // FEW064/// 13/12 Q1018 EDXW 182150Z AUTO 30005KT 6000 // FEW060/// 14/12 Q1019 EDXW 182120Z AUTO 25003KT 6000 // BKN060/// 15/13 Q1019 EDXW 182050Z AUTO 00000KT 6000 // BKN062/// 14/13 Q1019 EDXW 182020Z AUTO 11003KT 6000 // BKN066/// 14/13 Q1019 EDXW 181950Z AUTO 01001KT 6000 // BKN067/// 15/13 Q1019 EDXW 181920Z AUTO 34002KT 5000 // FEW070/// 15/13 Q1020 EDXW 181850Z AUTO 31004KT 6000 // FEW078/// SCT092/// 15/13 Q1019 EDXW 181820Z 29006KT 7000 NSC 16/13 Q1020 EDXW 181750Z 29007KT 7000 NSC 16/14 Q1020 EDXW 181720Z 28009KT 8000 NSC 16/14 Q1020 EDXW 181650Z 26009KT CAVOK 18/14 Q1020 EDXW 181620Z 21008KT CAVOK 22/16 Q1020 EDXW 181550Z 19008KT CAVOK 21/16 Q1020 EDXW 181520Z 19009KT CAVOK 22/16 Q1020 EDXW 181450Z 18010KT CAVOK 22/16 Q1020 EDXW 181420Z 19011KT CAVOK 22/16 Q1020

METAR Messwerte "WESTERLAND/SYLT" EDXW

Zurück zur Übersicht

Ortsname
Ländercode / m ü. NN
Zeit Temperatur Taupunkt Rel.
Luftfeuchte
Luftdruck:
Altimeter
NN
Station
Wind in Beaufort
(Knoten)
Sichtweite
(Meter)
Wolken
(Meter über Grund)
Wettererscheinung
WESTERLAND/SYLT
DE 8
Fr 20.05. 03:20131188 %1018
1018
1017
WNW 4 (15)>= 10000Bedeckt (520) 
WESTERLAND/SYLT
DE 8
Fr 20.05. 02:50131188 %1018
1018
1017
WNW 4 (14)>= 10000Bedeckt (460) 
WESTERLAND/SYLT
DE 8
Fr 20.05. 02:20131188 %1018
1018
1017
WNW 4 (13)>= 10000Bedeckt (240) 
WESTERLAND/SYLT
DE 8
Fr 20.05. 01:50121194 %1017
1017
1016
WNW 4 (15)>= 10000Bedeckt (150) 
WESTERLAND/SYLT
DE 8
Fr 20.05. 01:201212100 %1017
1017
1016
W 4 (14)>= 10000Bedeckt (150) 
WESTERLAND/SYLT
DE 8
Fr 20.05. 00:501212100 %1017
1017
1016
W 4 (13)5000Bedeckt (120)
Stark bewölkt (61)
 
WESTERLAND/SYLT
DE 8
Fr 20.05. 00:20131294 %1017
1017
1016
W 4 (12)1300  
WESTERLAND/SYLT
DE 8
Do 19.05. 23:501313100 %1017
1017
1016
W 4 (11)1300Bedeckt (120)
Wolkig (30)
 
WESTERLAND/SYLT
DE 8
Do 19.05. 23:201313100 %1016
1016
1015
W 3 (10)1100Bedeckt (120)
Wolkig (30)
 
WESTERLAND/SYLT
DE 8
Do 19.05. 22:50141394 %1016
1016
1015
W 4 (11)3200Bedeckt (1400)
Stark bewölkt (120)
Wolkig (61)
 
WESTERLAND/SYLT
DE 8
Do 19.05. 22:20141394 %1016
1016
1015
W 3 (10)6000Bedeckt (2900)
Stark bewölkt (1800)
Wolkig (61)
 
WESTERLAND/SYLT
DE 8
Do 19.05. 21:50141394 %1016
1016
1015
W 4 (12)9000Stark bewölkt (2900)
Stark bewölkt (2000)
Leicht bewölkt (120)
 
WESTERLAND/SYLT
DE 8
Do 19.05. 21:20141394 %1016
1016
1015
W 4 (11)>= 10000Nicht signifikant 
WESTERLAND/SYLT
DE 8
Do 19.05. 20:50141394 %1015
1015
1014
W 3 (10)>= 10000Nicht signifikant 
WESTERLAND/SYLT
DE 8
Do 19.05. 20:20151388 %1015
1015
1014
WNW 2 (5)>= 10000Nicht signifikant 
WESTERLAND/SYLT
DE 8
Do 19.05. 19:50151388 %1015
1015
1014
WNW 2 (5)>= 10000Nicht signifikant 
WESTERLAND/SYLT
DE 8
Do 19.05. 19:20151388 %1015
1015
1014
NW 2 (3)>= 10000Nicht signifikant 
WESTERLAND/SYLT
DE 8
Do 19.05. 18:50141394 %1015
1015
1014
Uml 1 (2)>= 10000Leicht bewölkt (1400) 
WESTERLAND/SYLT
DE 8
Do 19.05. 18:20151388 %1016
1016
1015
W 2 (6)>= 10000Nicht signifikantRegen (schwach)
WESTERLAND/SYLT
DE 8
Do 19.05. 17:50151388 %1017
1017
1016
W 3 (10)>= 10000Nicht signifikant 
WESTERLAND/SYLT
DE 8
Do 19.05. 17:20181583 %1017
1017
1016
SW 3 (10)
S - W
>= 10000Nicht signifikant 
WESTERLAND/SYLT
DE 8
Do 19.05. 16:50191683 %1016
1016
1015
S 2 (6)>= 10000Leicht bewölkt (1100) 
WESTERLAND/SYLT
DE 8
Do 19.05. 16:20191578 %1016
1016
1015
SSO 3 (7)>= 10000Nicht signifikant 
WESTERLAND/SYLT
DE 8
Do 19.05. 15:50191578 %1016
1016
1015
SO 3 (8)>= 10000Nicht signifikant 
WESTERLAND/SYLT
DE 8
Do 19.05. 15:20181583 %1015
1015
1014
O 3 (9)>= 10000Nicht signifikant 
WESTERLAND/SYLT
DE 8
Do 19.05. 14:50181477 %1016
1016
1015
O 4 (13)>= 10000Nicht signifikant 
WESTERLAND/SYLT
DE 8
Do 19.05. 14:20181477 %1016
1016
1015
O 4 (11)>= 10000Nicht signifikant 
WESTERLAND/SYLT
DE 8
Do 19.05. 13:50171377 %1016
1016
1015
O 4 (11)>= 10000Nicht signifikant 
WESTERLAND/SYLT
DE 8
Do 19.05. 13:20161277 %1017
1017
1016
NO 3 (10)>= 10000Nicht signifikant 
WESTERLAND/SYLT
DE 8
Do 19.05. 12:50151282 %1017
1017
1016
NO 2 (6)
N - ONO
>= 10000Leicht bewölkt (1000) 
WESTERLAND/SYLT
DE 8
Do 19.05. 12:20141394 %1017
1017
1016
NNO 3 (10)5000Leicht bewölkt (760)Regen (schwach)
WESTERLAND/SYLT
DE 8
Do 19.05. 11:501313100 %1019
1019
1018
NW 3 (7)3000Wolkig (1500)
Leicht bewölkt (61)
Regen (schwach)
Nebeldunst
WESTERLAND/SYLT
DE 8
Do 19.05. 11:201414100 %1018
1018
1017
NNW 2 (5)4500Leicht bewölkt (880)Regen (schwach)
Nebeldunst
WESTERLAND/SYLT
DE 8
Do 19.05. 10:501313100 %1018
1018
1017
WNW 3 (8)4500Leicht bewölkt (1100)Regen (schwach)
Nebeldunst
WESTERLAND/SYLT
DE 8
Do 19.05. 10:20131294 %1019
1019
1018
WNW 3 (7)2000Leicht bewölkt (210)Regen (schwach)
Nebeldunst
WESTERLAND/SYLT
DE 8
Do 19.05. 09:50151494 %1018
1018
1017
NW 3 (10)2500Leicht bewölkt (370)Regen
Nebeldunst
WESTERLAND/SYLT
DE 8
Do 19.05. 09:20161488 %1017
1017
1016
O 2 (5)
ONO - SO
5000Stark bewölkt (6400)
Stark bewölkt (3400)
Leicht bewölkt (2900)
 
WESTERLAND/SYLT
DE 8
Do 19.05. 08:50161488 %1017
1017
1016
SO 2 (6)
N - S
5000Stark bewölkt (7600)
Stark bewölkt (6100)
Stark bewölkt (4300)
 
WESTERLAND/SYLT
DE 8
Do 19.05. 08:201515100 %1017
1017
1016
O 2 (4)
N - SO
3400Stark bewölkt (7000)
Leicht bewölkt (150)
 
WESTERLAND/SYLT
DE 8
Do 19.05. 07:50151494 %1017
1017
1016
SO 2 (6)3200Stark bewölkt (6400)
Leicht bewölkt (120)
 
WESTERLAND/SYLT
DE 8
Do 19.05. 07:20151494 %1017
1017
1016
SO 2 (6)2500Leicht bewölkt (120) 
WESTERLAND/SYLT
DE 8
Do 19.05. 06:50141394 %1017
1017
1016
OSO 2 (5)2800Leicht bewölkt (7300) 
WESTERLAND/SYLT
DE 8
Do 19.05. 06:20111094 %1017
1017
1016
O 2 (4)1000Leicht bewölkt (150) 
WESTERLAND/SYLT
DE 8
Do 19.05. 05:501010100 %1018
1018
1017
O 2 (3)300Stark bewölkt (120) 
WESTERLAND/SYLT
DE 8
Do 19.05. 05:201010100 %1018
1018
1017
Uml 1 (1)200  
WESTERLAND/SYLT
DE 8
Do 19.05. 04:50111094 %1018
1018
1017
NNW 1 (1)200  
WESTERLAND/SYLT
DE 8
Do 19.05. 04:201111100 %1018
1018
1017
Uml 1 (1)250  
WESTERLAND/SYLT
DE 8
Do 19.05. 03:50121194 %1018
1018
1017
WNW 2 (4)350  
WESTERLAND/SYLT
DE 8
Do 19.05. 03:201212100 %1018
1018
1017
WNW 2 (5)2600Leicht bewölkt (120) 
WESTERLAND/SYLT
DE 8
Do 19.05. 02:501212100 %1018
1018
1017
W 2 (6)3200  
WESTERLAND/SYLT
DE 8
Do 19.05. 02:20121194 %1018
1018
1017
W 2 (3)2400Leicht bewölkt (1800) 
WESTERLAND/SYLT
DE 8
Do 19.05. 01:501212100 %1018
1018
1017
WNW 2 (3)3400  
WESTERLAND/SYLT
DE 8
Do 19.05. 01:20131294 %1018
1018
1017
WNW 2 (6)3400  
WESTERLAND/SYLT
DE 8
Do 19.05. 00:50131294 %1019
1019
1018
WNW 3 (8)4100Leicht bewölkt (1700) 
WESTERLAND/SYLT
DE 8
Do 19.05. 00:20131294 %1018
1018
1017
WNW 2 (5)4300Leicht bewölkt (2000) 
WESTERLAND/SYLT
DE 8
Mi 18.05. 23:50141288 %1019
1019
1018
WNW 2 (5)6000Leicht bewölkt (1800) 
WESTERLAND/SYLT
DE 8
Mi 18.05. 23:20151388 %1019
1019
1018
WSW 2 (3)6000Stark bewölkt (1800) 
WESTERLAND/SYLT
DE 8
Mi 18.05. 22:50141394 %1019
1019
1018
Windstill6000Stark bewölkt (1900) 
WESTERLAND/SYLT
DE 8
Mi 18.05. 22:20141394 %1019
1019
1018
OSO 2 (3)6000Stark bewölkt (2000) 
WESTERLAND/SYLT
DE 8
Mi 18.05. 21:50151388 %1019
1019
1018
N 1 (1)6000Stark bewölkt (2000) 
WESTERLAND/SYLT
DE 8
Mi 18.05. 21:20151388 %1020
1020
1019
NNW 1 (2)5000Leicht bewölkt (2100) 
WESTERLAND/SYLT
DE 8
Mi 18.05. 20:50151388 %1019
1019
1018
NW 2 (4)6000Wolkig (2800)
Leicht bewölkt (2400)
 
WESTERLAND/SYLT
DE 8
Mi 18.05. 20:20161382 %1020
1020
1019
WNW 2 (6)7000Nicht signifikant 
WESTERLAND/SYLT
DE 8
Mi 18.05. 19:50161488 %1020
1020
1019
WNW 3 (7)7000Nicht signifikant 
WESTERLAND/SYLT
DE 8
Mi 18.05. 19:20161488 %1020
1020
1019
W 3 (9)8000Nicht signifikant 
WESTERLAND/SYLT
DE 8
Mi 18.05. 18:50181477 %1020
1020
1019
W 3 (9)>= 10000Nicht signifikant 
WESTERLAND/SYLT
DE 8
Mi 18.05. 18:20221669 %1020
1020
1019
SSW 3 (8)>= 10000Nicht signifikant 
WESTERLAND/SYLT
DE 8
Mi 18.05. 17:50211673 %1020
1020
1019
S 3 (8)>= 10000Nicht signifikant 
WESTERLAND/SYLT
DE 8
Mi 18.05. 17:20221669 %1020
1020
1019
S 3 (9)>= 10000Nicht signifikant 
WESTERLAND/SYLT
DE 8
Mi 18.05. 16:50221669 %1020
1020
1019
S 3 (10)>= 10000Nicht signifikant 
WESTERLAND/SYLT
DE 8
Mi 18.05. 16:20221669 %1020
1020
1019
S 4 (11)>= 10000Nicht signifikant 

Altimeter: Einstellung am Altimeter (Höhenmesser), die Höhe 0 muss auf diesen Luftdruckwert zeigen, damit das Gerät die Stationshöhe richtig anzeigt.

NN: Luftdruck reduziert auf "Normal Null", auf Meereshöhe, dieser von der Temperatur abhängige Wert wird bisweilen unkorrekt einfach als "Luftdruck" bezeichnet. Eigentlich nur eine fiktive Größe, die es erlaubt, Stationen auf unterschiedlichen Höhen miteinander zu vergleichen.

Station: Realer Luftdruck an der Station.